createdAt,value
2023-01-09T00:00:34.783Z,2.33
2023-01-09T00:03:01.867Z,2.47
2023-01-09T00:05:28.937Z,2.58
2023-01-09T00:07:55.853Z,2.15
2023-01-09T00:10:25.761Z,2.40
2023-01-09T00:12:52.842Z,2.33
2023-01-09T00:15:20.048Z,2.17
2023-01-09T00:17:46.967Z,2.30
2023-01-09T00:20:13.864Z,2.30
2023-01-09T00:22:40.793Z,2.30
2023-01-09T00:25:07.875Z,2.22
2023-01-09T00:27:34.787Z,2.17
2023-01-09T00:30:01.752Z,2.20
2023-01-09T00:32:28.666Z,2.10
2023-01-09T00:34:55.579Z,2.30
2023-01-09T00:37:22.511Z,2.50
2023-01-09T00:39:49.422Z,2.10
2023-01-09T00:42:16.332Z,2.25
2023-01-09T00:44:43.292Z,2.30
2023-01-09T00:47:10.202Z,2.28
2023-01-09T00:49:37.101Z,2.17
2023-01-09T00:52:03.997Z,2.22
2023-01-09T00:54:30.914Z,2.05
2023-01-09T00:56:57.850Z,2.10
2023-01-09T00:59:24.770Z,2.10
2023-01-09T01:01:51.799Z,2.45
2023-01-09T01:04:18.851Z,2.30
2023-01-09T01:06:45.766Z,2.33
2023-01-09T01:09:12.658Z,2.25
2023-01-09T01:11:39.570Z,2.28
2023-01-09T01:14:06.524Z,2.33
2023-01-09T01:16:33.454Z,2.10
2023-01-09T01:19:00.356Z,2.50
2023-01-09T01:21:27.269Z,2.63
2023-01-09T01:23:54.170Z,2.45
2023-01-09T01:26:21.077Z,2.58
2023-01-09T01:28:47.991Z,2.40
2023-01-09T01:31:14.929Z,2.35
2023-01-09T01:33:41.828Z,2.42
2023-01-09T01:36:08.757Z,2.60
2023-01-09T01:38:35.683Z,2.60
2023-01-09T01:41:02.611Z,2.95
2023-01-09T01:43:29.581Z,3.10
2023-01-09T01:45:56.684Z,2.85
2023-01-09T01:48:23.639Z,2.85
2023-01-09T01:50:50.581Z,2.95
2023-01-09T01:53:17.496Z,2.67
2023-01-09T01:55:44.427Z,2.80
2023-01-09T01:58:11.421Z,2.72
2023-01-09T02:00:38.363Z,3.08
2023-01-09T02:03:05.373Z,3.45
2023-01-09T02:05:32.377Z,2.88
2023-01-09T02:07:59.298Z,3.13
2023-01-09T02:10:26.224Z,3.08
2023-01-09T02:12:53.187Z,3.00
2023-01-09T02:15:20.151Z,2.95
2023-01-09T02:17:47.064Z,2.67
2023-01-09T02:20:14.044Z,3.05
2023-01-09T02:22:40.947Z,3.00
2023-01-09T02:25:07.862Z,2.75
2023-01-09T02:27:34.776Z,3.03
2023-01-09T02:30:01.710Z,2.95
2023-01-09T02:32:28.628Z,3.38
2023-01-09T02:34:55.615Z,3.03
2023-01-09T02:37:22.576Z,2.70
2023-01-09T02:39:49.483Z,3.10
2023-01-09T02:42:16.440Z,3.17
2023-01-09T02:44:43.371Z,3.13
2023-01-09T02:47:10.293Z,3.10
2023-01-09T02:49:37.199Z,2.88
2023-01-09T02:52:04.131Z,3.20
2023-01-09T02:54:31.039Z,3.38
2023-01-09T02:56:57.997Z,3.20
2023-01-09T02:59:24.935Z,3.40
2023-01-09T03:01:51.957Z,3.05
2023-01-09T03:04:19.017Z,3.00
2023-01-09T03:06:45.952Z,2.83
2023-01-09T03:09:12.891Z,2.80
2023-01-09T03:11:39.846Z,3.20
2023-01-09T03:14:06.774Z,2.83
2023-01-09T03:16:33.829Z,2.97
2023-01-09T03:19:00.766Z,2.72
2023-01-09T03:21:27.732Z,3.00
2023-01-09T03:23:54.647Z,2.53
2023-01-09T03:26:21.574Z,2.92
2023-01-09T03:28:48.507Z,2.90
2023-01-09T03:31:15.477Z,3.42
2023-01-09T03:33:42.441Z,2.92
2023-01-09T03:36:09.405Z,2.78
2023-01-09T03:38:36.369Z,2.80
2023-01-09T03:41:03.332Z,2.97
2023-01-09T03:43:30.285Z,2.80
2023-01-09T03:45:57.252Z,2.83
2023-01-09T03:48:24.235Z,2.75
2023-01-09T03:50:51.182Z,2.63
2023-01-09T03:53:18.106Z,2.45
2023-01-09T03:55:45.034Z,2.45
2023-01-09T03:58:11.932Z,2.42
2023-01-09T04:00:38.870Z,2.38
2023-01-09T04:03:05.884Z,2.50
2023-01-09T04:05:32.826Z,2.30
2023-01-09T04:07:59.769Z,2.47
2023-01-09T04:10:26.695Z,2.70
2023-01-09T04:12:53.634Z,2.50
2023-01-09T04:15:20.548Z,2.58
2023-01-09T04:17:47.480Z,2.70
2023-01-09T04:20:14.405Z,2.60
2023-01-09T04:22:41.338Z,2.50
2023-01-09T04:25:08.268Z,2.45
2023-01-09T04:27:35.172Z,2.42
2023-01-09T04:30:02.128Z,2.50
2023-01-09T04:32:29.045Z,2.53
2023-01-09T04:34:55.974Z,2.40
2023-01-09T04:37:22.933Z,2.47
2023-01-09T04:39:49.839Z,2.10
2023-01-09T04:42:16.775Z,2.67
2023-01-09T04:44:43.701Z,2.58
2023-01-09T04:47:10.621Z,2.50
2023-01-09T04:49:37.579Z,2.70
2023-01-09T04:52:04.521Z,2.78
2023-01-09T04:54:31.488Z,2.45
2023-01-09T04:56:58.419Z,3.05
2023-01-09T04:59:25.372Z,2.40
2023-01-09T05:01:52.430Z,2.67
2023-01-09T05:04:19.512Z,2.83
2023-01-09T05:06:46.513Z,2.90
2023-01-09T05:09:13.413Z,2.53
2023-01-09T05:11:40.370Z,2.47
2023-01-09T05:14:07.315Z,2.70
2023-01-09T05:16:34.327Z,2.58
2023-01-09T05:19:01.262Z,2.40
2023-01-09T05:21:28.191Z,2.80
2023-01-09T05:23:55.140Z,2.35
2023-01-09T05:26:22.134Z,2.50
2023-01-09T05:28:49.082Z,2.47
2023-01-09T05:31:16.076Z,2.50
2023-01-09T05:33:43.049Z,2.53
2023-01-09T05:36:09.989Z,2.20
2023-01-09T05:38:36.922Z,2.30
2023-01-09T05:41:03.847Z,2.15
2023-01-09T05:43:30.736Z,2.15
2023-01-09T05:45:57.705Z,1.90
2023-01-09T05:48:24.616Z,1.85
2023-01-09T05:50:51.557Z,2.17
2023-01-09T05:53:18.967Z,1.75
2023-01-09T05:55:45.929Z,1.83
2023-01-09T05:58:12.861Z,1.80
2023-01-09T06:00:39.787Z,1.88
2023-01-09T06:03:18.232Z,1.65
2023-01-09T06:05:45.163Z,1.70
2023-01-09T06:08:12.126Z,1.83
2023-01-09T06:10:39.078Z,1.55
2023-01-09T06:13:05.996Z,1.58
2023-01-09T06:15:34.224Z,1.60
2023-01-09T06:18:01.167Z,1.52
2023-01-09T06:20:28.079Z,1.40
2023-01-09T06:22:55.023Z,1.30
2023-01-09T06:25:21.951Z,1.40
2023-01-09T06:27:48.924Z,1.50
2023-01-09T06:30:15.824Z,1.58
2023-01-09T06:32:42.805Z,1.50
2023-01-09T06:35:09.770Z,1.63
2023-01-09T06:37:36.712Z,1.40
2023-01-09T06:40:03.671Z,1.58
2023-01-09T06:42:30.663Z,1.25
2023-01-09T06:44:57.565Z,1.60
2023-01-09T06:47:24.506Z,1.63
2023-01-09T06:49:51.571Z,1.38
2023-01-09T06:52:18.509Z,1.48
2023-01-09T06:54:45.429Z,1.10
2023-01-09T06:57:12.355Z,1.20
2023-01-09T06:59:39.288Z,1.55
2023-01-09T07:02:06.305Z,1.23
2023-01-09T07:04:33.295Z,1.50
2023-01-09T07:07:00.263Z,1.58
2023-01-09T07:09:27.218Z,1.40
2023-01-09T07:11:54.138Z,1.50
2023-01-09T07:14:21.073Z,1.58
2023-01-09T07:16:48.014Z,1.33
2023-01-09T07:19:14.939Z,1.60
2023-01-09T07:21:41.903Z,1.30
2023-01-09T07:24:08.841Z,1.80
2023-01-09T07:26:35.787Z,1.33
2023-01-09T07:29:02.715Z,1.50
2023-01-09T07:31:29.664Z,1.83
2023-01-09T07:33:56.748Z,2.15
2023-01-09T07:36:23.658Z,1.40
2023-01-09T07:38:50.599Z,1.70
2023-01-09T07:41:17.497Z,1.50
2023-01-09T07:43:44.480Z,1.70
2023-01-09T07:46:11.420Z,1.30
2023-01-09T07:48:38.370Z,1.50
2023-01-09T07:54:01.713Z,1.08
2023-01-09T08:07:39.063Z,1.02
2023-01-09T08:10:06.005Z,1.20
2023-01-09T08:15:23.945Z,1.20
2023-01-09T08:17:50.949Z,1.27
2023-01-09T08:23:13.888Z,1.23
2023-01-09T08:28:41.063Z,1.05
2023-01-09T08:31:17.847Z,1.60
2023-01-09T08:36:28.644Z,1.70
2023-01-09T08:41:54.294Z,1.48
2023-01-09T08:44:21.308Z,1.70
2023-01-09T08:52:24.529Z,2.38
2023-01-09T08:57:36.092Z,2.03
2023-01-09T09:00:03.097Z,2.20
2023-01-09T09:02:30.087Z,1.60
2023-01-09T09:04:57.031Z,1.73
2023-01-09T09:07:23.949Z,1.60
2023-01-09T09:09:50.914Z,1.70
2023-01-09T09:12:17.862Z,1.70
2023-01-09T09:14:44.789Z,1.73
2023-01-09T09:17:11.724Z,2.05
2023-01-09T09:19:38.674Z,1.85
2023-01-09T09:22:05.588Z,2.05
2023-01-09T09:24:32.553Z,1.98
2023-01-09T09:26:59.480Z,2.00
2023-01-09T09:29:26.434Z,2.08
2023-01-09T09:31:53.374Z,2.38
2023-01-09T09:34:20.318Z,2.60
2023-01-09T09:36:47.281Z,2.85
2023-01-09T09:39:14.187Z,2.78
2023-01-09T09:41:41.139Z,3.17
2023-01-09T09:44:08.080Z,3.42
2023-01-09T09:46:35.033Z,3.08
2023-01-09T09:49:02.006Z,3.08
2023-01-09T09:51:28.933Z,3.60
2023-01-09T09:53:55.863Z,3.28
2023-01-09T09:56:22.816Z,3.70
2023-01-09T09:58:50.122Z,4.03
2023-01-09T10:01:17.093Z,4.15
2023-01-09T10:03:44.072Z,3.70
2023-01-09T10:06:11.032Z,4.28
2023-01-09T10:08:38.012Z,4.18
2023-01-09T10:11:04.958Z,3.38
2023-01-09T10:13:32.629Z,3.38
2023-01-09T10:15:59.671Z,3.60
2023-01-09T10:18:26.836Z,3.90
2023-01-09T10:20:53.747Z,3.75
2023-01-09T10:23:20.684Z,3.97
2023-01-09T10:25:47.629Z,4.07
2023-01-09T10:28:14.591Z,4.10
2023-01-09T10:30:41.515Z,3.90
2023-01-09T10:33:08.489Z,3.45
2023-01-09T10:35:46.976Z,3.90
2023-01-09T10:38:14.777Z,3.55
2023-01-09T10:40:41.729Z,3.33
2023-01-09T10:43:08.667Z,3.22
2023-01-09T10:45:35.609Z,3.70
2023-01-09T10:48:02.588Z,4.47
2023-01-09T10:50:29.516Z,4.50
2023-01-09T10:52:56.462Z,5.10
2023-01-09T10:55:23.381Z,5.40
2023-01-09T10:57:53.370Z,5.10
2023-01-09T11:00:23.071Z,5.30
2023-01-09T11:02:50.400Z,6.07
2023-01-09T11:05:17.335Z,4.88
2023-01-09T11:07:44.271Z,4.97
2023-01-09T11:10:11.199Z,4.55
2023-01-09T11:23:21.037Z,3.80
2023-01-09T11:25:48.030Z,4.30
2023-01-09T11:28:15.125Z,4.10
2023-01-09T11:30:42.085Z,3.88
2023-01-09T11:33:09.055Z,4.60
2023-01-09T11:35:36.021Z,3.83
2023-01-09T11:38:02.989Z,3.70
2023-01-09T11:40:29.994Z,3.58
2023-01-09T11:42:56.960Z,4.80
2023-01-09T11:45:23.924Z,4.10
2023-01-09T11:47:50.940Z,4.20
2023-01-09T11:50:18.029Z,4.00
2023-01-09T11:52:46.331Z,5.00
2023-01-09T11:55:13.376Z,5.35
2023-01-09T11:57:40.316Z,6.30
2023-01-09T12:00:07.255Z,6.65
2023-01-09T12:02:34.185Z,5.88
2023-01-09T12:05:01.224Z,6.18
2023-01-09T12:07:28.160Z,5.93
2023-01-09T12:09:55.083Z,4.95
2023-01-09T12:12:22.041Z,4.88
2023-01-09T12:14:51.899Z,4.60
2023-01-09T12:17:18.857Z,4.40
2023-01-09T12:19:45.769Z,3.80
2023-01-09T12:22:12.689Z,4.18
2023-01-09T12:24:39.616Z,4.00
2023-01-09T12:27:06.747Z,3.60
2023-01-09T12:29:33.670Z,3.90
2023-01-09T12:32:00.651Z,3.75
2023-01-09T12:34:27.707Z,4.00
2023-01-09T12:36:54.668Z,3.83
2023-01-09T12:39:21.626Z,3.67
2023-01-09T12:41:48.553Z,3.65
2023-01-09T12:44:19.808Z,4.10
2023-01-09T12:46:51.282Z,3.80
2023-01-09T12:49:18.200Z,3.60
2023-01-09T12:51:45.143Z,3.63
2023-01-09T12:54:12.074Z,3.72
2023-01-09T12:56:39.050Z,3.95
2023-01-09T12:59:05.998Z,4.13
2023-01-09T13:01:32.943Z,4.45
2023-01-09T13:03:59.943Z,3.75
2023-01-09T13:06:26.852Z,3.33
2023-01-09T13:08:53.937Z,3.20
2023-01-09T13:11:30.563Z,3.00
2023-01-09T13:13:57.622Z,3.00
2023-01-09T13:19:07.472Z,2.95
2023-01-09T13:21:34.385Z,3.55
2023-01-09T13:24:01.434Z,3.05
2023-01-09T13:26:28.383Z,3.80
2023-01-09T13:28:55.345Z,3.65
2023-01-09T13:31:22.370Z,4.28
2023-01-09T13:33:49.361Z,3.80
2023-01-09T13:36:17.995Z,3.40
2023-01-09T13:38:45.999Z,3.50
2023-01-09T13:41:12.924Z,3.90
2023-01-09T13:43:39.973Z,3.67
2023-01-09T13:46:06.967Z,4.00
2023-01-09T13:48:33.980Z,3.13
2023-01-09T13:51:00.955Z,3.80
2023-01-09T13:53:27.879Z,4.13
2023-01-09T13:55:54.815Z,4.72
2023-01-09T13:58:23.923Z,3.83
2023-01-09T14:00:50.924Z,3.67
2023-01-09T14:03:18.055Z,3.58
2023-01-09T14:05:44.994Z,3.65
2023-01-09T14:08:11.950Z,3.70
2023-01-09T14:10:38.880Z,3.80
2023-01-09T14:13:05.837Z,3.65
2023-01-09T14:15:32.754Z,3.88
2023-01-09T14:17:59.714Z,3.88
2023-01-09T14:20:26.657Z,4.22
2023-01-09T14:22:56.486Z,3.38
2023-01-09T14:25:32.239Z,3.47
2023-01-09T14:27:59.189Z,4.20
2023-01-09T14:30:26.155Z,4.13
2023-01-09T14:32:53.110Z,3.67
2023-01-09T14:35:20.406Z,3.70
2023-01-09T14:37:47.332Z,3.88
2023-01-09T14:40:14.310Z,3.90
2023-01-09T14:42:41.245Z,3.50
2023-01-09T14:45:08.179Z,3.70
2023-01-09T14:47:35.104Z,3.55
2023-01-09T14:50:02.115Z,4.00
2023-01-09T14:52:29.043Z,3.53
2023-01-09T14:54:56.008Z,3.40
2023-01-09T14:57:22.963Z,3.20
2023-01-09T14:59:49.927Z,3.63
2023-01-09T15:02:16.864Z,3.50
2023-01-09T15:04:43.807Z,3.03
2023-01-09T15:07:10.781Z,3.22
2023-01-09T15:09:37.729Z,3.42
2023-01-09T15:12:04.692Z,3.53
2023-01-09T15:14:31.618Z,3.40
2023-01-09T15:16:58.589Z,3.67
2023-01-09T15:19:25.562Z,3.88
2023-01-09T15:21:52.505Z,3.72
2023-01-09T15:24:19.432Z,3.88
2023-01-09T15:26:46.338Z,3.80
2023-01-09T15:29:13.285Z,3.65
2023-01-09T15:31:40.224Z,4.22
2023-01-09T15:34:07.171Z,3.60
2023-01-09T15:36:35.223Z,3.80
2023-01-09T15:39:02.292Z,3.80
2023-01-09T15:41:29.216Z,4.05
2023-01-09T15:43:56.367Z,3.50
2023-01-09T15:46:23.370Z,3.97
2023-01-09T15:48:50.304Z,3.53
2023-01-09T15:51:17.260Z,3.58
2023-01-09T15:53:44.200Z,4.05
2023-01-09T15:56:11.180Z,4.15
2023-01-09T15:58:38.139Z,3.85
2023-01-09T16:01:05.129Z,5.25
2023-01-09T16:03:32.088Z,5.03
2023-01-09T16:05:59.012Z,5.85
2023-01-09T16:08:25.934Z,5.25
2023-01-09T16:10:52.934Z,5.15
2023-01-09T16:13:19.860Z,5.03
2023-01-09T16:15:46.895Z,5.38
2023-01-09T16:18:13.846Z,7.60
2023-01-09T16:20:40.849Z,7.90
2023-01-09T16:23:07.818Z,8.18
2023-01-09T16:25:34.762Z,7.72
2023-01-09T16:28:01.685Z,7.55
2023-01-09T16:30:28.612Z,7.07
2023-01-09T16:32:55.556Z,6.55
2023-01-09T16:35:22.479Z,5.97
2023-01-09T16:37:49.498Z,5.30
2023-01-09T16:40:16.458Z,5.30
2023-01-09T16:42:43.357Z,5.30
2023-01-09T16:45:10.310Z,5.47
2023-01-09T16:47:37.261Z,5.78
2023-01-09T16:50:04.317Z,5.40
2023-01-09T16:52:31.312Z,4.78
2023-01-09T16:54:58.314Z,5.47
2023-01-09T16:57:25.316Z,4.85
2023-01-09T16:59:52.355Z,5.22
2023-01-09T17:02:19.408Z,4.43
2023-01-09T17:04:46.484Z,4.32
2023-01-09T17:07:13.455Z,4.00
2023-01-09T17:09:40.391Z,4.10
2023-01-09T17:12:07.346Z,4.20
2023-01-09T17:14:34.286Z,5.05
2023-01-09T17:17:03.507Z,4.72
2023-01-09T17:19:30.520Z,5.47
2023-01-09T17:21:57.432Z,5.70
2023-01-09T17:24:24.437Z,5.05
2023-01-09T17:26:51.471Z,4.93
2023-01-09T17:29:18.438Z,5.20
2023-01-09T17:31:45.483Z,5.30
2023-01-09T17:34:12.519Z,5.63
2023-01-09T17:36:39.503Z,4.93
2023-01-09T17:39:06.689Z,5.00
2023-01-09T17:41:33.720Z,5.30
2023-01-09T17:44:00.660Z,5.90
2023-01-09T17:46:32.041Z,5.78
2023-01-09T17:48:59.040Z,8.02
2023-01-09T17:51:36.076Z,7.40
2023-01-09T17:54:03.093Z,7.72
2023-01-09T17:56:30.055Z,6.68
2023-01-09T17:58:57.016Z,7.53
2023-01-09T18:01:24.001Z,9.30
2023-01-09T18:03:50.992Z,9.45
2023-01-09T18:06:17.893Z,10.02
2023-01-09T18:08:46.245Z,9.40
2023-01-09T18:11:13.154Z,9.00
2023-01-09T18:13:40.100Z,9.65
2023-01-09T18:16:07.181Z,9.00
2023-01-09T18:18:34.159Z,8.23
2023-01-09T18:21:01.094Z,7.30
2023-01-09T18:23:27.989Z,7.80
2023-01-09T18:26:07.929Z,6.95
2023-01-09T18:28:34.840Z,7.43
2023-01-09T18:31:01.775Z,7.55
2023-01-09T18:33:28.662Z,7.10
2023-01-09T18:35:55.555Z,7.60
2023-01-09T18:38:22.463Z,8.27
2023-01-09T18:46:05.605Z,11.07
2023-01-09T18:51:17.022Z,11.68
2023-01-09T18:53:43.923Z,9.90
2023-01-09T18:56:10.850Z,9.85
2023-01-09T18:58:37.819Z,9.05
2023-01-09T19:01:04.818Z,9.80
2023-01-09T19:03:31.867Z,10.77
2023-01-09T19:05:58.855Z,9.73
2023-01-09T19:08:25.784Z,10.10
2023-01-09T19:10:52.783Z,10.95
2023-01-09T19:13:19.720Z,10.55
2023-01-09T19:15:48.741Z,10.73
2023-01-09T19:18:15.663Z,10.30
2023-01-09T19:20:42.624Z,10.77
2023-01-09T19:23:09.553Z,11.40
2023-01-09T19:25:36.613Z,9.88
2023-01-09T19:28:03.529Z,10.13
2023-01-09T19:30:30.446Z,11.93
2023-01-09T19:32:57.347Z,11.73
2023-01-09T19:35:24.285Z,11.48
2023-01-09T19:37:51.279Z,11.00
2023-01-09T19:40:18.187Z,12.57
2023-01-09T19:42:45.142Z,11.75
2023-01-09T19:45:12.059Z,10.65
2023-01-09T19:47:38.992Z,9.68
2023-01-09T19:50:06.167Z,9.38
2023-01-09T21:17:42.964Z,12.75
2023-01-09T21:20:34.251Z,12.82
2023-01-09T21:25:43.021Z,12.55
2023-01-09T21:33:42.203Z,12.57
2023-01-09T21:36:09.218Z,13.77
2023-01-09T22:01:59.699Z,15.10
2023-01-09T22:21:22.669Z,16.25
2023-01-09T22:46:31.640Z,16.23
2023-01-09T22:59:12.064Z,14.57
2023-01-09T23:00:05.982Z,14.95
2023-01-09T23:10:50.033Z,14.75
2023-01-09T23:13:16.943Z,15.48
2023-01-09T23:15:43.857Z,15.43
2023-01-09T23:18:10.780Z,14.40
2023-01-09T23:20:37.707Z,14.85
2023-01-09T23:23:04.622Z,14.27
2023-01-09T23:25:31.575Z,13.88
2023-01-09T23:28:01.534Z,14.70
2023-01-09T23:30:28.589Z,14.02
2023-01-09T23:32:55.548Z,14.55
2023-01-09T23:35:22.494Z,15.40
2023-01-09T23:37:49.437Z,13.85
2023-01-09T23:40:16.335Z,13.50
2023-01-09T23:42:43.248Z,14.40
2023-01-09T23:45:10.169Z,15.30
2023-01-09T23:47:37.239Z,13.55
2023-01-09T23:50:04.163Z,13.95
2023-01-09T23:52:31.069Z,14.40
2023-01-09T23:54:57.981Z,13.80
2023-01-09T23:57:25.053Z,14.00
2023-01-09T23:59:54.351Z,14.32
